Time;durP1;ratioP1;P1;durP2;ratioP2;P2;SDS_P1;SDS_P2;PMS_P1;PMS_P2;Temp;Humidity;BMP_temperature;BMP_pressure;BME280_temperature;BME280_humidity;BME280_pressure;Samples;Min_cycle;Max_cycle;Signal;HPM_P1;HPM_P2
2021/01/28 00:01:06;;;;;;;15.37;8.83;;;1.90;99.90;;;;;;5022277;28;20479;-68
2021/01/28 00:03:35;;;;;;;12.50;8.87;;;2.00;99.90;;;;;;5023969;28;20533;-69
2021/01/28 00:06:03;;;;;;;10.13;8.47;;;2.10;99.90;;;;;;5030321;28;20464;-69
2021/01/28 00:08:30;;;;;;;14.30;8.83;;;1.90;99.90;;;;;;5032204;28;20470;-70
2021/01/28 00:10:58;;;;;;;9.83;8.30;;;2.00;99.90;;;;;;5032351;28;20529;-69
2021/01/28 00:13:25;;;;;;;12.93;9.13;;;2.00;99.90;;;;;;5032390;28;20491;-69
2021/01/28 00:15:53;;;;;;;13.90;8.73;;;2.10;99.90;;;;;;5031228;28;20447;-69
2021/01/28 00:18:21;;;;;;;14.03;9.40;;;2.10;99.90;;;;;;5032707;28;20522;-69
2021/01/28 00:20:50;;;;;;;12.23;8.90;;;2.20;99.90;;;;;;5032359;28;20454;-69
2021/01/28 00:23:19;;;;;;;13.17;8.83;;;2.20;99.90;;;;;;5032138;28;20446;-69
2021/01/28 00:25:48;;;;;;;13.33;8.80;;;2.20;99.90;;;;;;5032716;28;20555;-69
2021/01/28 00:28:19;;;;;;;12.83;9.40;;;2.10;99.90;;;;;;5032131;28;20505;-71
2021/01/28 00:30:48;;;;;;;10.43;8.57;;;2.10;99.90;;;;;;5029802;28;20449;-70
2021/01/28 00:33:18;;;;;;;10.60;8.20;;;2.10;99.90;;;;;;5030670;28;20443;-69
2021/01/28 00:35:48;;;;;;;16.53;9.50;;;2.10;99.90;;;;;;5032107;28;20468;-74
2021/01/28 00:38:19;;;;;;;11.53;8.10;;;2.20;99.90;;;;;;5032134;28;20934;-70
2021/01/28 00:40:48;;;;;;;15.43;10.00;;;2.20;99.90;;;;;;5032526;28;20439;-69
2021/01/28 00:43:18;;;;;;;14.37;9.90;;;2.20;99.90;;;;;;5032082;28;20588;-73
2021/01/28 00:45:46;;;;;;;13.30;8.60;;;2.10;99.90;;;;;;5030976;28;20919;-69
2021/01/28 00:48:15;;;;;;;12.60;9.33;;;2.10;99.90;;;;;;5032746;28;20444;-73
2021/01/28 00:50:43;;;;;;;13.63;9.33;;;2.10;99.90;;;;;;5014137;28;20471;-70
2021/01/28 00:53:12;;;;;;;11.30;8.63;;;2.10;99.90;;;;;;5031880;28;20446;-70
2021/01/28 00:55:42;;;;;;;11.80;8.80;;;2.10;99.90;;;;;;4997917;28;20431;-69
2021/01/28 00:58:42;;;;;;;9.43;8.00;;;2.10;99.90;;;;;;5029494;28;20435;-70
2021/01/28 01:01:12;;;;;;;15.03;10.00;;;1.90;99.90;;;;;;5024759;28;20464;-69
2021/01/28 01:03:40;;;;;;;13.57;9.40;;;2.00;99.90;;;;;;5011345;28;20622;-69
2021/01/28 01:06:10;;;;;;;13.83;8.73;;;2.10;99.90;;;;;;5011639;28;20439;-73
2021/01/28 01:08:37;;;;;;;10.67;8.20;;;2.00;99.90;;;;;;5011778;28;20447;-69
2021/01/28 01:11:28;;;;;;;14.00;9.20;;;2.10;99.90;;;;;;4994110;28;20545;-69
2021/01/28 01:13:57;;;;;;;13.90;9.80;;;2.10;99.90;;;;;;4994184;28;20436;-69
2021/01/28 01:16:28;;;;;;;12.87;9.23;;;2.10;99.90;;;;;;4993168;28;20808;-71
2021/01/28 01:19:03;;;;;;;11.50;8.87;;;2.10;99.90;;;;;;5026360;28;20438;-73
2021/01/28 01:22:04;;;;;;;10.40;8.40;;;2.10;99.90;;;;;;5003748;28;20443;-69
2021/01/28 01:24:33;;;;;;;12.27;7.30;;;2.20;99.90;;;;;;5026545;28;20447;-70
2021/01/28 01:27:04;;;;;;;11.40;8.60;;;2.20;99.90;;;;;;4993981;28;20540;-69
2021/01/28 01:29:32;;;;;;;8.90;7.03;;;2.10;99.90;;;;;;5026835;28;20463;-69
2021/01/28 01:32:00;;;;;;;12.17;8.60;;;2.10;99.90;;;;;;5012084;28;20512;-70
2021/01/28 01:34:32;;;;;;;15.87;9.60;;;2.10;99.90;;;;;;5030437;28;20557;-70
2021/01/28 01:37:04;;;;;;;14.63;10.53;;;2.10;99.90;;;;;;5030389;28;20515;-70
2021/01/28 01:39:34;;;;;;;12.50;8.43;;;2.10;99.90;;;;;;4997457;28;20617;-70
2021/01/28 01:42:05;;;;;;;13.40;10.17;;;2.00;99.90;;;;;;5030221;28;20440;-68
2021/01/28 01:44:33;;;;;;;15.47;9.60;;;2.00;99.90;;;;;;5015318;28;20895;-68
2021/01/28 01:47:43;;;;;;;11.23;7.93;;;2.00;99.90;;;;;;5007378;28;20560;-69
2021/01/28 01:50:29;;;;;;;14.50;9.17;;;2.10;99.90;;;;;;5031176;28;20567;-68
2021/01/28 01:52:57;;;;;;;16.23;10.03;;;2.20;99.90;;;;;;5030368;28;20874;-73
2021/01/28 01:55:26;;;;;;;17.30;10.37;;;2.20;99.90;;;;;;5015515;28;20412;-69
2021/01/28 01:58:06;;;;;;;17.77;10.87;;;2.20;99.90;;;;;;5029894;28;20434;-71
2021/01/28 02:00:44;;;;;;;13.63;10.83;;;2.10;99.90;;;;;;5026472;28;20474;-70
2021/01/28 02:03:21;;;;;;;13.77;8.77;;;2.10;99.90;;;;;;5016762;28;20477;-75
2021/01/28 02:06:18;;;;;;;16.47;9.93;;;2.20;99.90;;;;;;5031097;28;21076;-70
2021/01/28 02:09:06;;;;;;;16.20;9.47;;;2.20;99.90;;;;;;5034011;28;20722;-73
2021/01/28 02:12:00;;;;;;;12.93;9.10;;;2.10;99.90;;;;;;5016530;28;20603;-68
2021/01/28 02:15:05;;;;;;;13.83;9.13;;;2.10;99.90;;;;;;5026149;28;20443;-70
2021/01/28 02:17:48;;;;;;;16.93;9.50;;;2.20;99.90;;;;;;5016313;28;20578;-70
2021/01/28 02:20:54;;;;;;;19.37;11.10;;;2.10;99.90;;;;;;5017661;28;20493;-69
2021/01/28 02:23:37;;;;;;;17.73;10.37;;;2.10;99.90;;;;;;5016863;28;20448;-68
2021/01/28 02:26:09;;;;;;;18.43;11.50;;;2.30;99.90;;;;;;5033317;28;20443;-69
2021/01/28 02:28:39;;;;;;;14.60;9.83;;;2.30;99.90;;;;;;5033359;28;20903;-70
2021/01/28 02:31:09;;;;;;;17.83;11.10;;;2.40;99.90;;;;;;5015704;28;21072;-69
2021/01/28 02:33:41;;;;;;;15.23;9.90;;;2.30;99.90;;;;;;5035011;28;20795;-69
2021/01/28 02:36:31;;;;;;;16.10;9.57;;;2.40;99.90;;;;;;5016201;28;20440;-72
2021/01/28 02:39:14;;;;;;;14.27;8.43;;;2.30;99.90;;;;;;5032284;28;20427;-69
2021/01/28 02:41:47;;;;;;;17.83;10.50;;;2.40;99.90;;;;;;5016620;28;20793;-69
2021/01/28 02:44:50;;;;;;;14.90;9.90;;;2.50;99.90;;;;;;5015966;28;20439;-69
2021/01/28 02:47:40;;;;;;;13.53;8.60;;;2.40;99.90;;;;;;5033161;28;20501;-71
2021/01/28 02:50:29;;;;;;;16.50;9.67;;;2.30;99.90;;;;;;5015819;28;20946;-70
2021/01/28 02:53:00;;;;;;;15.30;8.87;;;2.20;99.90;;;;;;5016068;28;20453;-69
2021/01/28 02:55:32;;;;;;;16.80;9.50;;;2.30;99.90;;;;;;5015540;28;20471;-69
2021/01/28 02:58:01;;;;;;;16.10;10.00;;;2.30;99.90;;;;;;5032467;28;20895;-71
2021/01/28 03:00:39;;;;;;;14.97;9.93;;;2.30;99.90;;;;;;5011482;28;20940;-70
2021/01/28 03:03:10;;;;;;;15.80;10.20;;;2.30;99.90;;;;;;5012790;28;20584;-70
2021/01/28 03:05:53;;;;;;;13.97;9.20;;;2.20;99.90;;;;;;5012239;28;20452;-69
2021/01/28 03:08:24;;;;;;;14.40;10.03;;;2.10;99.90;;;;;;5012008;28;20440;-70
2021/01/28 03:11:11;;;;;;;16.10;9.67;;;2.00;99.90;;;;;;5013164;28;20474;-73
2021/01/28 03:13:41;;;;;;;17.37;9.13;;;2.00;99.90;;;;;;5011748;28;20443;-70
2021/01/28 03:16:38;;;;;;;19.30;10.90;;;1.90;99.90;;;;;;5018128;28;20476;-70
2021/01/28 03:19:22;;;;;;;16.37;8.70;;;1.90;99.90;;;;;;5015297;28;20778;-70
2021/01/28 03:21:52;;;;;;;16.63;9.53;;;1.90;99.90;;;;;;5031542;28;20867;-70
2021/01/28 03:24:35;;;;;;;13.40;9.20;;;1.90;99.90;;;;;;5031514;28;20443;-70
2021/01/28 03:27:08;;;;;;;15.03;9.30;;;1.90;99.90;;;;;;5032693;28;20493;-69
2021/01/28 03:29:37;;;;;;;17.27;10.07;;;1.80;99.90;;;;;;5015155;28;20943;-72
2021/01/28 03:32:05;;;;;;;13.90;9.10;;;1.90;99.90;;;;;;5030753;28;20483;-70
2021/01/28 03:34:35;;;;;;;15.33;10.77;;;1.90;99.90;;;;;;5033460;28;20423;-69
2021/01/28 03:37:04;;;;;;;12.47;9.17;;;1.90;99.90;;;;;;5032167;28;20522;-73
2021/01/28 03:39:41;;;;;;;15.87;9.20;;;1.90;99.90;;;;;;5031486;28;20508;-69
2021/01/28 03:42:09;;;;;;;14.90;8.63;;;1.90;99.90;;;;;;5033708;28;20776;-69
2021/01/28 03:44:43;;;;;;;14.37;9.50;;;2.10;99.90;;;;;;5015247;28;20432;-70
2021/01/28 03:47:11;;;;;;;15.73;9.47;;;2.10;99.90;;;;;;5030278;28;20537;-74
2021/01/28 03:49:57;;;;;;;16.30;10.10;;;2.00;99.90;;;;;;5014755;28;20786;-70
2021/01/28 03:52:25;;;;;;;12.03;8.47;;;1.90;99.90;;;;;;5015175;28;20965;-69
2021/01/28 03:55:21;;;;;;;12.93;9.70;;;1.90;99.90;;;;;;4978529;28;20460;-70
2021/01/28 03:57:50;;;;;;;13.70;8.30;;;1.90;99.90;;;;;;5031349;28;20468;-72
2021/01/28 04:00:22;;;;;;;14.93;10.57;;;1.90;99.90;;;;;;5014238;28;20874;-69
2021/01/28 04:03:10;;;;;;;13.77;9.00;;;1.90;99.90;;;;;;5014479;28;20506;-70
2021/01/28 04:05:56;;;;;;;13.83;9.50;;;1.90;99.90;;;;;;5028999;28;20606;-70
2021/01/28 04:08:42;;;;;;;14.40;9.33;;;1.90;99.90;;;;;;5029423;28;20545;-69
2021/01/28 04:11:46;;;;;;;14.60;9.13;;;1.90;99.90;;;;;;5029711;28;20514;-69
2021/01/28 04:14:52;;;;;;;15.20;8.50;;;1.90;99.90;;;;;;4998816;28;20447;-69
2021/01/28 04:17:22;;;;;;;16.87;9.37;;;1.80;99.90;;;;;;5031948;28;20536;-70
2021/01/28 04:19:56;;;;;;;13.10;9.70;;;1.90;99.90;;;;;;5014527;28;20439;-69
2021/01/28 04:22:24;;;;;;;16.70;8.80;;;1.90;99.90;;;;;;5032306;28;20434;-70
2021/01/28 04:24:58;;;;;;;14.43;8.20;;;1.90;99.90;;;;;;5031036;28;20447;-70
2021/01/28 04:27:27;;;;;;;12.80;8.70;;;1.90;99.90;;;;;;5014454;28;20501;-71
2021/01/28 04:30:09;;;;;;;16.00;8.67;;;2.00;99.90;;;;;;5030541;28;20542;-70
2021/01/28 04:32:50;;;;;;;17.53;8.87;;;2.10;99.90;;;;;;5014554;28;20554;-69
2021/01/28 04:35:37;;;;;;;18.23;9.80;;;2.30;99.90;;;;;;5032775;28;20526;-69
2021/01/28 04:38:07;;;;;;;17.30;9.73;;;2.10;99.90;;;;;;5030816;28;20504;-70
2021/01/28 04:40:42;;;;;;;14.40;9.83;;;2.00;99.90;;;;;;5014675;28;20455;-69
2021/01/28 04:43:20;;;;;;;12.37;7.90;;;2.00;99.90;;;;;;5032410;28;20431;-69
2021/01/28 04:46:00;;;;;;;13.77;8.20;;;2.00;99.90;;;;;;5029902;28;20556;-69
2021/01/28 04:48:34;;;;;;;13.13;7.53;;;2.00;99.90;;;;;;5031815;28;20434;-69
2021/01/28 04:51:14;;;;;;;12.27;7.93;;;2.20;99.90;;;;;;5031460;28;20467;-69
2021/01/28 04:53:52;;;;;;;10.80;7.17;;;2.30;99.90;;;;;;5014098;28;20455;-70
2021/01/28 04:56:31;;;;;;;14.93;10.17;;;2.40;99.90;;;;;;5030710;28;20459;-69
2021/01/28 04:59:29;;;;;;;12.20;7.50;;;2.40;99.90;;;;;;5032547;28;20563;-69
2021/01/28 05:01:59;;;;;;;15.90;8.10;;;2.40;99.90;;;;;;5013849;28;20557;-69
2021/01/28 05:04:52;;;;;;;12.67;7.50;;;2.30;99.90;;;;;;5030752;28;20546;-69
2021/01/28 05:07:55;;;;;;;21.07;9.57;;;2.30;99.90;;;;;;5033365;28;20447;-69
2021/01/28 05:10:45;;;;;;;16.47;9.13;;;2.20;99.90;;;;;;5035775;28;20553;-69
2021/01/28 05:13:33;;;;;;;11.60;8.67;;;2.20;99.90;;;;;;5035699;28;20450;-70
2021/01/28 05:16:43;;;;;;;14.87;7.63;;;2.10;99.90;;;;;;5017263;28;20498;-69
2021/01/28 05:19:38;;;;;;;15.30;8.30;;;2.10;99.90;;;;;;5007426;28;20953;-68
2021/01/28 05:22:33;;;;;;;16.63;9.53;;;2.10;99.90;;;;;;5016713;28;20803;-70
2021/01/28 05:25:14;;;;;;;12.70;7.90;;;2.00;99.90;;;;;;5034703;28;20755;-70
2021/01/28 05:27:58;;;;;;;15.73;8.33;;;2.00;99.90;;;;;;5034027;28;20423;-68
2021/01/28 05:30:39;;;;;;;16.30;8.93;;;2.00;99.90;;;;;;5033356;28;20469;-69
2021/01/28 05:33:26;;;;;;;16.43;9.03;;;2.00;99.90;;;;;;5017528;28;20475;-72
2021/01/28 05:36:17;;;;;;;15.03;8.10;;;2.10;99.90;;;;;;5035599;28;20968;-70
2021/01/28 05:39:21;;;;;;;12.93;7.23;;;2.10;99.90;;;;;;5035368;28;20452;-69
2021/01/28 05:41:51;;;;;;;14.93;8.40;;;2.10;99.90;;;;;;5035702;28;20431;-69
2021/01/28 05:44:29;;;;;;;14.50;8.70;;;2.10;99.90;;;;;;5017964;28;20438;-71
2021/01/28 05:47:05;;;;;;;14.40;9.03;;;2.10;99.90;;;;;;5033520;28;20478;-68
2021/01/28 05:49:53;;;;;;;16.07;9.00;;;2.00;99.90;;;;;;5035780;28;20926;-69
2021/01/28 05:52:27;;;;;;;16.53;9.50;;;2.10;99.90;;;;;;5017840;28;20478;-70
2021/01/28 05:55:08;;;;;;;11.83;8.50;;;2.10;99.90;;;;;;5034475;28;20450;-71
2021/01/28 05:57:52;;;;;;;13.23;7.17;;;2.20;99.90;;;;;;5033962;28;20438;-70
2021/01/28 06:00:32;;;;;;;15.13;9.63;;;2.20;99.90;;;;;;5017319;28;20828;-69
2021/01/28 06:03:49;;;;;;;17.17;10.10;;;2.20;99.90;;;;;;5016925;28;20479;-70
2021/01/28 06:07:09;;;;;;;18.13;9.13;;;2.20;99.90;;;;;;5036040;28;20450;-74
2021/01/28 06:10:47;;;;;;;11.70;7.70;;;2.20;99.90;;;;;;5017664;28;20431;-70
2021/01/28 06:14:05;;;;;;;28.43;10.03;;;2.20;99.90;;;;;;5017484;28;20432;-74
2021/01/28 06:17:36;;;;;;;14.00;8.10;;;2.20;99.90;;;;;;5023010;28;20946;-69
2021/01/28 06:20:42;;;;;;;12.57;9.07;;;2.20;99.90;;;;;;5017277;28;20443;-70
2021/01/28 06:23:33;;;;;;;13.47;9.60;;;2.20;99.90;;;;;;5036062;28;20419;-72
2021/01/28 06:29:34;;;;;;;12.57;8.03;;;2.30;99.90;;;;;;5033652;28;20748;-70
2021/01/28 06:32:23;;;;;;;14.57;9.00;;;2.30;99.90;;;;;;4999251;28;20485;-69
2021/01/28 06:35:33;;;;;;;16.00;9.00;;;2.20;99.90;;;;;;5020274;28;20443;-68
2021/01/28 06:38:37;;;;;;;13.70;8.53;;;2.20;99.90;;;;;;5024652;28;20428;-68
2021/01/28 06:41:48;;;;;;;13.97;9.60;;;2.10;99.90;;;;;;5016212;28;20447;-70
2021/01/28 06:44:31;;;;;;;18.50;9.10;;;2.00;99.90;;;;;;5000260;28;20474;-69
2021/01/28 06:47:32;;;;;;;15.07;8.47;;;2.10;99.90;;;;;;5033170;28;20479;-69
2021/01/28 06:50:29;;;;;;;14.77;8.87;;;2.00;99.90;;;;;;5034031;28;20956;-69
2021/01/28 06:53:05;;;;;;;20.33;10.53;;;2.00;99.90;;;;;;5032761;28;20441;-69
2021/01/28 06:56:17;;;;;;;11.03;7.60;;;2.00;99.90;;;;;;4973953;28;20484;-69
2021/01/28 06:59:09;;;;;;;14.70;9.27;;;1.90;99.90;;;;;;4942154;28;20450;-69
2021/01/28 07:01:52;;;;;;;16.23;9.70;;;1.90;99.90;;;;;;4994058;28;20495;-69
2021/01/28 07:04:52;;;;;;;15.73;10.00;;;1.90;99.90;;;;;;5023236;28;20613;-68
2021/01/28 07:07:30;;;;;;;17.47;9.07;;;1.90;99.90;;;;;;5007395;28;20463;-68
2021/01/28 07:10:34;;;;;;;14.90;9.50;;;1.90;99.90;;;;;;5007177;28;20558;-69
2021/01/28 07:13:26;;;;;;;14.10;10.27;;;1.80;99.90;;;;;;4984056;28;20554;-68
2021/01/28 07:16:22;;;;;;;19.30;10.70;;;1.80;99.90;;;;;;5013794;28;20525;-68
2021/01/28 07:18:55;;;;;;;14.43;9.43;;;1.80;99.90;;;;;;5024697;28;20450;-69
2021/01/28 07:21:31;;;;;;;23.20;12.07;;;1.80;99.90;;;;;;5024537;28;20459;-68
2021/01/28 07:24:29;;;;;;;19.87;10.73;;;1.80;99.90;;;;;;5007010;28;20553;-69
2021/01/28 07:26:58;;;;;;;19.80;10.30;;;1.90;99.90;;;;;;5024849;28;20554;-69
2021/01/28 07:29:55;;;;;;;16.70;10.73;;;1.90;99.90;;;;;;5023782;28;20459;-69
2021/01/28 07:32:57;;;;;;;17.80;10.30;;;1.90;99.90;;;;;;5023652;28;20587;-68
2021/01/28 07:35:49;;;;;;;19.83;11.07;;;1.90;99.90;;;;;;5024233;28;20467;-68
2021/01/28 07:38:42;;;;;;;18.53;10.93;;;1.90;99.90;;;;;;5024505;28;20461;-68
2021/01/28 07:41:52;;;;;;;21.17;9.60;;;1.90;99.90;;;;;;5006650;28;20467;-68
2021/01/28 07:44:54;;;;;;;18.57;10.67;;;2.00;99.90;;;;;;5000221;28;20550;-70
2021/01/28 07:47:49;;;;;;;19.90;10.07;;;2.10;99.90;;;;;;4982816;28;20480;-68
2021/01/28 07:50:34;;;;;;;21.23;12.63;;;2.00;99.90;;;;;;4982596;28;20657;-69
2021/01/28 07:53:39;;;;;;;20.83;11.40;;;2.00;99.90;;;;;;4966874;28;21010;-69
2021/01/28 07:56:55;;;;;;;20.63;10.80;;;2.00;99.90;;;;;;4966821;28;20915;-69
2021/01/28 07:59:34;;;;;;;18.40;10.80;;;2.10;99.90;;;;;;4984073;28;20467;-69
2021/01/28 08:02:22;;;;;;;16.57;10.20;;;2.10;99.90;;;;;;5018943;28;20475;-67
2021/01/28 08:04:54;;;;;;;16.07;10.67;;;2.20;99.90;;;;;;5023350;28;21003;-68
2021/01/28 08:07:27;;;;;;;17.80;11.07;;;2.20;99.90;;;;;;5023332;28;20466;-69
2021/01/28 08:09:56;;;;;;;17.80;10.90;;;2.20;99.90;;;;;;5023812;28;20854;-69
2021/01/28 08:12:29;;;;;;;22.40;11.77;;;2.20;99.90;;;;;;5023082;28;20875;-69
2021/01/28 08:14:58;;;;;;;21.23;13.30;;;2.20;99.90;;;;;;5021995;28;20962;-67
2021/01/28 08:17:32;;;;;;;19.17;11.40;;;2.30;99.90;;;;;;5022639;28;20476;-69
2021/01/28 08:20:16;;;;;;;19.10;10.63;;;2.40;99.90;;;;;;5023686;28;20537;-68
2021/01/28 08:23:00;;;;;;;21.33;12.80;;;2.50;99.90;;;;;;5005251;28;20455;-68
2021/01/28 08:25:34;;;;;;;21.87;12.80;;;2.60;99.90;;;;;;5022944;28;20863;-69
2021/01/28 08:28:15;;;;;;;23.93;14.70;;;2.50;99.90;;;;;;5004988;28;20467;-68
2021/01/28 08:30:43;;;;;;;20.00;11.90;;;2.50;99.90;;;;;;5004217;28;20562;-69
2021/01/28 08:33:19;;;;;;;21.73;13.10;;;2.50;99.90;;;;;;5022758;28;20486;-70
2021/01/28 08:35:53;;;;;;;22.23;12.13;;;2.60;99.90;;;;;;5023137;28;20503;-69
2021/01/28 08:38:25;;;;;;;22.07;12.57;;;2.50;99.90;;;;;;5005305;28;20549;-69
2021/01/28 08:40:59;;;;;;;19.57;12.10;;;2.70;99.90;;;;;;5023018;28;20830;-68
2021/01/28 08:43:28;;;;;;;26.27;11.70;;;2.60;99.90;;;;;;5023202;28;20557;-68
2021/01/28 08:46:10;;;;;;;21.37;12.77;;;2.70;99.90;;;;;;5022082;28;21442;-68
2021/01/28 08:48:40;;;;;;;22.10;11.90;;;2.70;99.90;;;;;;5022798;28;20574;-68
2021/01/28 08:51:16;;;;;;;22.53;12.13;;;2.60;99.90;;;;;;5022682;28;20493;-69
2021/01/28 08:53:47;;;;;;;24.50;12.17;;;2.60;99.90;;;;;;5022865;28;20478;-70
2021/01/28 08:56:19;;;;;;;23.30;13.40;;;2.70;99.90;;;;;;5021448;28;20448;-68
2021/01/28 08:58:48;;;;;;;20.70;12.03;;;2.80;99.90;;;;;;5023876;28;20549;-68
2021/01/28 09:01:16;;;;;;;18.80;11.23;;;2.80;99.90;;;;;;5022131;28;20572;-68
2021/01/28 09:03:54;;;;;;;23.97;13.60;;;3.00;99.90;;;;;;5024155;28;20536;-69
2021/01/28 09:06:22;;;;;;;23.40;12.00;;;2.90;99.90;;;;;;5006677;28;20662;-69
2021/01/28 09:09:02;;;;;;;19.87;12.00;;;2.80;99.90;;;;;;5023941;28;21135;-68
2021/01/28 09:11:32;;;;;;;23.90;13.80;;;2.80;99.90;;;;;;5005918;28;20481;-69
2021/01/28 09:14:28;;;;;;;22.07;12.57;;;2.90;99.90;;;;;;5024056;28;20463;-67
2021/01/28 09:16:58;;;;;;;24.23;11.50;;;3.00;99.90;;;;;;5021741;28;20502;-68
2021/01/28 09:19:28;;;;;;;16.70;10.30;;;3.00;99.90;;;;;;5023115;28;20452;-68
2021/01/28 09:22:01;;;;;;;18.57;11.10;;;3.00;99.90;;;;;;5023374;28;20463;-68
2021/01/28 09:24:37;;;;;;;17.00;10.30;;;3.10;99.90;;;;;;5022821;28;20934;-69
2021/01/28 09:27:18;;;;;;;20.17;10.97;;;3.10;99.90;;;;;;5023154;28;20466;-68
2021/01/28 09:29:48;;;;;;;13.03;8.23;;;3.20;99.90;;;;;;5023507;28;20492;-68
2021/01/28 09:32:29;;;;;;;20.87;12.30;;;3.20;99.90;;;;;;5022121;28;20495;-69
2021/01/28 09:35:09;;;;;;;19.30;11.83;;;3.10;99.90;;;;;;5005073;28;20879;-68
2021/01/28 09:37:38;;;;;;;15.43;10.23;;;3.10;99.90;;;;;;5023046;28;20549;-69
2021/01/28 09:40:27;;;;;;;14.00;8.97;;;3.00;99.90;;;;;;5021464;28;20549;-69
2021/01/28 09:43:15;;;;;;;21.17;11.10;;;3.10;99.90;;;;;;5023136;28;20471;-68
2021/01/28 09:46:01;;;;;;;20.30;10.50;;;3.00;99.90;;;;;;5022968;28;20502;-69
2021/01/28 09:48:29;;;;;;;13.03;7.57;;;3.00;99.90;;;;;;5023335;28;20919;-71
2021/01/28 09:50:57;;;;;;;16.40;9.53;;;2.90;99.90;;;;;;4988924;28;20463;-68
2021/01/28 09:53:24;;;;;;;14.80;9.67;;;2.90;99.90;;;;;;5023522;28;20459;-69
2021/01/28 09:55:51;;;;;;;12.27;7.70;;;2.90;99.90;;;;;;5025509;28;20462;-68
2021/01/28 09:58:24;;;;;;;15.43;9.33;;;2.80;99.90;;;;;;5008575;28;20451;-70
2021/01/28 10:00:54;;;;;;;18.00;10.67;;;2.90;99.90;;;;;;5022928;28;20527;-71
2021/01/28 10:03:23;;;;;;;17.07;8.67;;;2.80;99.90;;;;;;5008084;28;21626;-70
2021/01/28 10:05:52;;;;;;;10.17;7.83;;;2.90;99.90;;;;;;5007970;28;20463;-70
2021/01/28 10:08:19;;;;;;;14.93;8.20;;;2.90;99.90;;;;;;5026734;28;20492;-69
2021/01/28 10:10:47;;;;;;;13.47;8.27;;;2.90;99.90;;;;;;5026205;28;20455;-69
2021/01/28 10:13:18;;;;;;;15.20;8.67;;;2.90;99.90;;;;;;5026225;28;20529;-69
2021/01/28 10:15:45;;;;;;;14.97;8.70;;;2.90;99.90;;;;;;5007825;28;21062;-70
2021/01/28 10:18:14;;;;;;;17.90;9.70;;;3.00;99.90;;;;;;5025768;28;20663;-70
2021/01/28 10:20:43;;;;;;;15.83;9.53;;;3.00;99.90;;;;;;5025078;28;21171;-69
2021/01/28 10:23:12;;;;;;;12.37;8.63;;;2.90;99.90;;;;;;5025466;28;20470;-69
2021/01/28 10:25:39;;;;;;;15.73;7.60;;;2.90;99.90;;;;;;5025317;28;20536;-70
2021/01/28 10:28:07;;;;;;;14.87;9.53;;;3.00;99.90;;;;;;5007433;28;20474;-70
2021/01/28 10:30:34;;;;;;;12.70;8.10;;;3.00;99.90;;;;;;5007082;28;20490;-70
2021/01/28 10:33:03;;;;;;;13.53;7.10;;;3.00;99.90;;;;;;5024796;28;20544;-70
2021/01/28 10:35:34;;;;;;;13.70;7.00;;;3.00;99.90;;;;;;5025602;28;20481;-69
2021/01/28 10:38:04;;;;;;;11.77;6.93;;;2.90;99.90;;;;;;5025621;28;20454;-70
2021/01/28 10:40:31;;;;;;;13.30;6.80;;;3.00;99.90;;;;;;5007466;28;20517;-69
2021/01/28 10:43:02;;;;;;;12.20;6.60;;;3.10;99.90;;;;;;5025465;28;20458;-70
2021/01/28 10:45:54;;;;;;;12.73;6.77;;;3.10;99.90;;;;;;5024713;28;20546;-71
2021/01/28 10:48:22;;;;;;;10.93;5.67;;;3.20;99.90;;;;;;5023015;28;20475;-70
2021/01/28 10:50:51;;;;;;;10.50;7.63;;;3.20;99.90;;;;;;5024891;28;20463;-69
2021/01/28 10:53:23;;;;;;;15.13;6.50;;;3.10;99.90;;;;;;5024640;28;20949;-70
2021/01/28 10:55:51;;;;;;;9.20;6.10;;;3.10;99.90;;;;;;5024486;28;20499;-71
2021/01/28 11:01:17;;;;;;;9.73;6.00;;;3.20;99.90;;;;;;5023281;28;20490;-70
2021/01/28 11:03:45;;;;;;;9.40;6.83;;;3.10;99.90;;;;;;5024544;28;20548;-70
2021/01/28 11:06:13;;;;;;;10.50;5.93;;;3.10;99.90;;;;;;5024411;28;20459;-70
2021/01/28 11:08:41;;;;;;;10.03;5.77;;;3.10;99.90;;;;;;5007111;28;20550;-69
2021/01/28 11:11:14;;;;;;;11.50;5.57;;;3.10;99.90;;;;;;5006780;28;20482;-70
2021/01/28 11:13:42;;;;;;;6.50;5.17;;;3.10;99.90;;;;;;5024313;28;20815;-70
2021/01/28 11:16:09;;;;;;;7.30;4.57;;;3.00;99.90;;;;;;5023367;28;20490;-70
2021/01/28 11:18:37;;;;;;;8.63;5.33;;;3.10;99.90;;;;;;5024154;28;20463;-71
2021/01/28 11:21:05;;;;;;;10.10;5.60;;;3.00;99.90;;;;;;5006115;28;20538;-71
2021/01/28 11:23:33;;;;;;;12.90;7.67;;;3.00;99.90;;;;;;5024423;28;20471;-70
2021/01/28 11:26:01;;;;;;;8.53;5.50;;;3.00;99.90;;;;;;5006640;28;20485;-69
2021/01/28 11:28:29;;;;;;;7.37;4.43;;;3.10;99.90;;;;;;5024005;28;20931;-70
2021/01/28 11:30:59;;;;;;;7.90;4.93;;;3.10;99.90;;;;;;5022898;28;20506;-70
2021/01/28 11:33:27;;;;;;;9.53;4.80;;;3.10;99.90;;;;;;5023840;28;20605;-71
2021/01/28 11:35:55;;;;;;;7.90;5.93;;;3.20;99.90;;;;;;5023658;28;20550;-70
2021/01/28 11:38:22;;;;;;;8.60;5.23;;;3.10;99.90;;;;;;5005898;28;20455;-69
2021/01/28 11:40:51;;;;;;;16.73;6.93;;;3.20;99.90;;;;;;5024180;28;20473;-71
2021/01/28 11:43:18;;;;;;;10.03;5.53;;;3.20;99.90;;;;;;5005685;28;20471;-70
2021/01/28 11:46:11;;;;;;;7.13;4.60;;;3.30;99.90;;;;;;5022578;28;20558;-70
2021/01/28 11:48:38;;;;;;;6.53;4.60;;;3.40;99.90;;;;;;5023545;28;20559;-70
2021/01/28 11:51:06;;;;;;;5.90;4.53;;;3.30;99.90;;;;;;5023608;28;20478;-70
2021/01/28 11:53:39;;;;;;;8.13;5.73;;;3.30;99.90;;;;;;5023864;28;20955;-71
2021/01/28 11:56:07;;;;;;;5.60;4.70;;;3.20;99.90;;;;;;5023592;28;20455;-71
2021/01/28 11:58:38;;;;;;;12.07;4.97;;;3.20;99.90;;;;;;5021533;28;20558;-71
2021/01/28 12:01:06;;;;;;;7.93;5.30;;;3.20;99.90;;;;;;5001193;28;20515;-69
2021/01/28 12:03:59;;;;;;;9.40;6.03;;;3.20;99.90;;;;;;5003675;28;20467;-69
2021/01/28 12:06:26;;;;;;;10.43;6.70;;;3.20;99.90;;;;;;5002253;28;20972;-70
2021/01/28 12:08:54;;;;;;;8.67;4.60;;;3.30;99.90;;;;;;5018616;28;20538;-70
2021/01/28 12:11:22;;;;;;;7.57;4.70;;;3.30;99.90;;;;;;5004204;28;20455;-70
2021/01/28 12:13:53;;;;;;;6.97;5.30;;;3.30;99.90;;;;;;5005144;28;20456;-71
2021/01/28 12:16:21;;;;;;;9.87;5.47;;;3.50;99.90;;;;;;5004729;28;20495;-72
2021/01/28 12:18:48;;;;;;;8.50;5.23;;;3.50;99.90;;;;;;5024929;28;20524;-70
2021/01/28 12:21:16;;;;;;;7.13;5.30;;;3.50;99.90;;;;;;5024080;28;20555;-70
2021/01/28 12:24:09;;;;;;;5.57;4.47;;;3.60;99.90;;;;;;5023402;28;20494;-70
2021/01/28 12:26:38;;;;;;;4.80;4.13;;;3.70;99.90;;;;;;5005480;28;20594;-70
2021/01/28 12:29:05;;;;;;;5.77;4.50;;;3.60;99.90;;;;;;5022932;28;20467;-71
2021/01/28 12:31:32;;;;;;;8.50;5.40;;;3.70;99.90;;;;;;5021705;28;20471;-70
2021/01/28 12:34:00;;;;;;;9.83;5.70;;;3.60;99.90;;;;;;5005222;28;20803;-70
2021/01/28 12:36:28;;;;;;;6.40;4.60;;;3.70;99.90;;;;;;5021581;28;20508;-71
2021/01/28 12:38:55;;;;;;;6.77;4.43;;;3.70;99.90;;;;;;5023053;28;20455;-72
2021/01/28 12:41:23;;;;;;;7.30;4.47;;;3.70;99.90;;;;;;5023116;28;20473;-70
2021/01/28 12:43:51;;;;;;;8.10;6.03;;;3.70;99.90;;;;;;5023445;28;20459;-70
2021/01/28 12:46:19;;;;;;;5.73;4.40;;;3.70;99.90;;;;;;5020635;28;20458;-70
2021/01/28 12:48:47;;;;;;;4.40;4.00;;;3.90;99.90;;;;;;5005102;28;20442;-71
2021/01/28 12:51:14;;;;;;;3.40;3.03;;;3.90;99.90;;;;;;5023497;28;20463;-69
2021/01/28 12:53:42;;;;;;;4.67;4.17;;;4.10;99.90;;;;;;5022952;28;20915;-71
2021/01/28 12:56:10;;;;;;;5.50;3.90;;;4.00;99.90;;;;;;5022722;28;20430;-70
2021/01/28 12:58:38;;;;;;;3.87;3.20;;;3.90;99.90;;;;;;5022712;28;20542;-70
2021/01/28 13:01:07;;;;;;;4.40;3.83;;;4.00;99.90;;;;;;5021270;28;20475;-69
2021/01/28 13:03:58;;;;;;;5.80;3.63;;;4.00;99.90;;;;;;5005308;28;20566;-71
2021/01/28 13:06:26;;;;;;;5.03;3.40;;;4.10;99.90;;;;;;5005400;28;20467;-71
2021/01/28 13:08:54;;;;;;;3.60;3.30;;;4.20;99.90;;;;;;5023521;28;20456;-71
2021/01/28 13:11:22;;;;;;;5.90;4.20;;;4.30;99.90;;;;;;5005705;28;20467;-70
2021/01/28 13:13:49;;;;;;;5.17;4.73;;;4.20;99.90;;;;;;5005179;28;20611;-70
2021/01/28 13:16:18;;;;;;;5.57;3.87;;;4.30;99.90;;;;;;5004806;28;20597;-70
2021/01/28 13:18:46;;;;;;;3.87;3.40;;;4.40;99.90;;;;;;5022033;28;20462;-70
2021/01/28 13:21:13;;;;;;;6.03;4.10;;;4.40;99.90;;;;;;4989112;28;20471;-71
2021/01/28 13:23:41;;;;;;;5.50;3.67;;;4.40;99.90;;;;;;5005149;28;20512;-70
2021/01/28 13:26:08;;;;;;;3.73;3.43;;;4.40;99.90;;;;;;5023049;28;20522;-70
2021/01/28 13:28:36;;;;;;;5.20;3.87;;;4.50;99.90;;;;;;5024701;28;20923;-70
2021/01/28 13:31:03;;;;;;;3.53;2.47;;;4.40;99.90;;;;;;5025686;28;20517;-70
2021/01/28 13:33:32;;;;;;;3.80;3.20;;;4.50;99.90;;;;;;5027169;28;20485;-70
2021/01/28 13:35:59;;;;;;;3.37;3.10;;;4.50;99.90;;;;;;5027169;28;20438;-70
2021/01/28 13:38:27;;;;;;;5.20;3.40;;;4.50;99.90;;;;;;5027343;28;20488;-71
2021/01/28 13:40:54;;;;;;;3.80;3.47;;;4.60;99.90;;;;;;5025673;28;20449;-71
2021/01/28 13:43:21;;;;;;;4.43;3.60;;;4.50;99.90;;;;;;5027958;28;20532;-71
2021/01/28 13:45:50;;;;;;;5.30;4.13;;;4.60;99.90;;;;;;5026076;28;20478;-71